Time,TemperatureF,DewpointF,PressureIn,WindDirection,WindDirectionDegrees,WindSpeedMPH,WindSpeedGustMPH,Humidity,HourlyPrecipIn,Conditions,Clouds,dailyrainin,SoftwareType,DateUTC
2013-01-17 00:05:00,36.6,35.3,30.00,SSE,157,0.0,1.0,95,0.00,,,-99.99,WeatherLink 5.4,2013-01-17 05:05:00,
2013-01-17 00:15:00,36.8,35.5,30.01,SSE,157,0.0,2.0,95,0.00,,,-99.99,WeatherLink 5.4,2013-01-17 05:15:00,
2013-01-17 00:20:00,36.8,35.5,30.01,SSE,157,0.0,2.0,95,0.00,,,-99.99,WeatherLink 5.4,2013-01-17 05:20:00,
2013-01-17 00:30:00,37.0,35.7,30.01,SSE,157,1.0,3.0,95,0.00,,,-99.99,WeatherLink 5.4,2013-01-17 05:30:00,
2013-01-17 00:45:00,37.2,35.9,30.02,SSE,157,1.0,3.0,95,0.00,,,-99.99,WeatherLink 5.4,2013-01-17 05:45:00,
2013-01-17 00:50:00,37.2,35.9,30.02,SSE,157,1.0,3.0,95,0.00,,,-99.99,WeatherLink 5.4,2013-01-17 05:50:00,
2013-01-17 01:00:00,37.9,36.3,30.02,SSE,157,1.0,5.0,94,0.00,,,-99.99,WeatherLink 5.4,2013-01-17 06:00:00,
2013-01-17 01:05:00,37.9,36.3,30.02,SSE,157,1.0,5.0,94,0.00,,,-99.99,WeatherLink 5.4,2013-01-17 06:05:00,
2013-01-17 01:15:00,38.8,34.4,30.01,SSE,157,1.0,6.0,84,0.00,,,-99.99,WeatherLink 5.4,2013-01-17 06:15:00,
2013-01-17 01:30:00,39.5,33.8,30.03,SSE,157,0.0,5.0,80,0.00,,,-99.99,WeatherLink 5.4,2013-01-17 06:30:00,
2013-01-17 01:35:00,39.5,33.8,30.03,SSE,157,0.0,5.0,80,0.00,,,-99.99,WeatherLink 5.4,2013-01-17 06:35:00,
2013-01-17 01:45:00,39.8,33.2,30.03,SSE,157,1.0,5.0,77,0.00,,,-99.99,WeatherLink 5.4,2013-01-17 06:45:00,
2013-01-17 02:00:00,39.8,32.5,30.02,SSE,157,1.0,5.0,75,0.00,,,-99.99,WeatherLink 5.4,2013-01-17 07:00:00,
2013-01-17 02:15:00,40.2,31.2,30.04,SSE,157,2.0,7.0,70,0.00,,,-99.99,WeatherLink 5.4,2013-01-17 07:15:00,
2013-01-17 02:20:00,40.2,31.2,30.04,SSE,157,2.0,7.0,70,0.00,,,-99.99,WeatherLink 5.4,2013-01-17 07:20:00,
2013-01-17 02:30:00,40.3,30.6,30.04,SSW,202,1.0,5.0,68,0.00,,,-99.99,WeatherLink 5.4,2013-01-17 07:30:00,
2013-01-17 02:45:00,40.3,28.3,30.03,SW,225,2.0,10.0,62,0.00,,,-99.99,WeatherLink 5.4,2013-01-17 07:45:00,
2013-01-17 03:00:00,40.9,28.1,30.03,WSW,247,4.0,9.0,60,0.00,,,-99.99,WeatherLink 5.4,2013-01-17 08:00:00,
2013-01-17 03:05:00,40.9,28.1,30.03,WSW,247,4.0,9.0,60,0.00,,,-99.99,WeatherLink 5.4,2013-01-17 08:05:00,
2013-01-17 03:15:00,41.2,27.5,30.02,West,270,6.0,16.0,58,0.00,,,-99.99,WeatherLink 5.4,2013-01-17 08:15:00,
2013-01-17 03:30:00,41.3,25.9,30.03,West,270,7.0,14.0,54,0.00,,,-99.99,WeatherLink 5.4,2013-01-17 08:30:00,
2013-01-17 03:45:00,41.5,25.6,30.03,West,270,5.0,12.0,53,0.00,,,-99.99,WeatherLink 5.4,2013-01-17 08:45:00,
2013-01-17 03:50:00,41.5,25.6,30.03,West,270,5.0,12.0,53,0.00,,,-99.99,WeatherLink 5.4,2013-01-17 08:50:00,
2013-01-17 04:00:00,41.3,24.5,30.01,West,270,4.0,12.0,51,0.00,,,-99.99,WeatherLink 5.4,2013-01-17 09:00:00,
2013-01-17 04:15:00,41.2,24.4,30.02,West,270,7.0,16.0,51,0.00,,,-99.99,WeatherLink 5.4,2013-01-17 09:15:00,
2013-01-17 04:30:00,41.2,23.9,30.03,West,270,9.0,17.0,50,0.00,,,-99.99,WeatherLink 5.4,2013-01-17 09:30:00,
2013-01-17 04:45:00,41.3,23.6,30.04,West,270,8.0,18.0,49,0.00,,,-99.99,WeatherLink 5.4,2013-01-17 09:45:00,
2013-01-17 05:00:00,41.2,23.9,30.04,West,270,4.0,13.0,50,0.00,,,-99.99,WeatherLink 5.4,2013-01-17 10:00:00,
2013-01-17 05:15:00,40.9,24.6,30.05,WSW,247,1.0,7.0,52,0.00,,,-99.99,WeatherLink 5.4,2013-01-17 10:15:00,
2013-01-17 05:30:00,40.6,24.3,30.05,WSW,247,0.0,3.0,52,0.00,,,-99.99,WeatherLink 5.4,2013-01-17 10:30:00,
2013-01-17 05:45:00,40.3,25.0,30.05,WSW,247,0.0,1.0,54,0.00,,,-99.99,WeatherLink 5.4,2013-01-17 10:45:00,
2013-01-17 05:50:00,40.3,25.0,30.05,WSW,247,0.0,1.0,54,0.00,,,-99.99,WeatherLink 5.4,2013-01-17 10:50:00,
2013-01-17 06:00:00,39.9,24.1,30.07,WSW,247,1.0,7.0,53,0.00,,,-99.99,WeatherLink 5.4,2013-01-17 11:00:00,
2013-01-17 06:15:00,39.8,23.6,30.06,NNW,337,2.0,11.0,52,0.00,,,-99.99,WeatherLink 5.4,2013-01-17 11:15:00,
2013-01-17 06:30:00,39.5,24.2,30.08,NW,315,0.0,3.0,54,0.00,,,-99.99,WeatherLink 5.4,2013-01-17 11:30:00,
2013-01-17 06:45:00,39.2,25.2,30.08,NW,315,0.0,2.0,57,0.00,,,-99.99,WeatherLink 5.4,2013-01-17 11:45:00,
2013-01-17 06:50:00,39.2,25.2,30.08,NW,315,0.0,2.0,57,0.00,,,-99.99,WeatherLink 5.4,2013-01-17 11:50:00,
2013-01-17 07:00:00,38.6,25.1,30.09,ENE,67,1.0,7.0,58,0.00,,,-99.99,WeatherLink 5.4,2013-01-17 12:00:00,
2013-01-17 07:15:00,38.2,25.1,30.08,NW,315,4.0,10.0,59,0.00,,,-99.99,WeatherLink 5.4,2013-01-17 12:15:00,
2013-01-17 07:30:00,37.8,25.1,30.08,WNW,292,4.0,13.0,60,0.00,,,-99.99,WeatherLink 5.4,2013-01-17 12:30:00,
2013-01-17 07:45:00,37.5,25.3,30.10,North,0,2.0,10.0,61,0.00,,,-99.99,WeatherLink 5.4,2013-01-17 12:45:00,
2013-01-17 08:00:00,37.5,26.0,30.11,North,0,0.0,2.0,63,0.00,,,-99.99,WeatherLink 5.4,2013-01-17 13:00:00,
2013-01-17 08:15:00,37.2,26.1,30.11,West,270,3.0,6.0,64,0.00,,,-99.99,WeatherLink 5.4,2013-01-17 13:15:00,
2013-01-17 08:30:00,37.2,26.9,30.14,West,270,1.0,6.0,66,0.00,,,-99.99,WeatherLink 5.4,2013-01-17 13:30:00,
2013-01-17 08:45:00,37.3,27.3,30.12,North,0,0.0,3.0,67,0.00,,,-99.99,WeatherLink 5.4,2013-01-17 13:45:00,
2013-01-17 08:50:00,37.3,27.3,30.12,North,0,0.0,3.0,67,0.00,,,-99.99,WeatherLink 5.4,2013-01-17 13:50:00,
2013-01-17 09:00:00,37.3,27.3,30.13,NNW,337,1.0,6.0,67,0.00,,,-99.99,WeatherLink 5.4,2013-01-17 14:00:00,
2013-01-17 09:15:00,37.5,27.9,30.14,North,0,2.0,6.0,68,0.00,,,-99.99,WeatherLink 5.4,2013-01-17 14:15:00,
2013-01-17 09:20:00,37.5,27.9,30.14,North,0,2.0,6.0,68,0.00,,,-99.99,WeatherLink 5.4,2013-01-17 14:20:00,
2013-01-17 09:30:00,37.8,28.5,30.14,NW,315,2.0,7.0,69,0.00,,,-99.99,WeatherLink 5.4,2013-01-17 14:30:00,
2013-01-17 09:35:00,37.8,28.5,30.14,NW,315,2.0,7.0,69,0.00,,,-99.99,WeatherLink 5.4,2013-01-17 14:35:00,
2013-01-17 09:45:00,37.8,28.2,30.15,NNW,337,1.0,5.0,68,0.00,,,-99.99,WeatherLink 5.4,2013-01-17 14:45:00,
2013-01-17 10:00:00,38.0,28.7,30.15,East,90,0.0,2.0,69,0.00,,,-99.99,WeatherLink 5.4,2013-01-17 15:00:00,
2013-01-17 10:15:00,38.2,28.9,30.16,NW,315,1.0,5.0,69,0.00,,,-99.99,WeatherLink 5.4,2013-01-17 15:15:00,
2013-01-17 10:20:00,38.2,28.9,30.16,NW,315,1.0,5.0,69,0.00,,,-99.99,WeatherLink 5.4,2013-01-17 15:20:00,
2013-01-17 10:30:00,38.2,28.2,30.15,North,0,1.0,3.0,67,0.00,,,-99.99,WeatherLink 5.4,2013-01-17 15:30:00,
2013-01-17 10:45:00,38.2,28.6,30.15,NNW,337,4.0,10.0,68,0.00,,,-99.99,WeatherLink 5.4,2013-01-17 15:45:00,
2013-01-17 10:50:00,38.2,28.6,30.15,NNW,337,4.0,10.0,68,0.00,,,-99.99,WeatherLink 5.4,2013-01-17 15:50:00,
2013-01-17 11:00:00,38.3,28.7,30.16,NNW,337,4.0,12.0,68,0.00,,,-99.99,WeatherLink 5.4,2013-01-17 16:00:00,
2013-01-17 11:05:00,38.3,28.7,30.16,NNW,337,4.0,12.0,68,0.00,,,-99.99,WeatherLink 5.4,2013-01-17 16:05:00,
2013-01-17 11:15:00,38.2,28.6,30.16,NNW,337,4.0,12.0,68,0.00,,,-99.99,WeatherLink 5.4,2013-01-17 16:15:00,
2013-01-17 11:20:00,38.2,28.6,30.16,NNW,337,4.0,12.0,68,0.00,,,-99.99,WeatherLink 5.4,2013-01-17 16:20:00,
2013-01-17 11:30:00,38.2,28.9,30.15,NW,315,3.0,11.0,69,0.00,,,-99.99,WeatherLink 5.4,2013-01-17 16:30:00,
2013-01-17 11:45:00,38.0,28.7,30.15,NW,315,4.0,8.0,69,0.00,,,-99.99,WeatherLink 5.4,2013-01-17 16:45:00,
2013-01-17 11:50:00,38.0,28.7,30.15,NW,315,4.0,8.0,69,0.00,,,-99.99,WeatherLink 5.4,2013-01-17 16:50:00,
2013-01-17 12:00:00,38.0,28.7,30.14,NNW,337,3.0,7.0,69,0.00,,,-99.99,WeatherLink 5.4,2013-01-17 17:00:00,
2013-01-17 12:15:00,38.0,28.0,30.12,NNW,337,4.0,9.0,67,0.00,,,-99.99,WeatherLink 5.4,2013-01-17 17:15:00,
2013-01-17 12:30:00,38.0,28.7,30.12,NW,315,3.0,8.0,69,0.00,,,-99.99,WeatherLink 5.4,2013-01-17 17:30:00,
2013-01-17 12:35:00,38.0,28.7,30.12,NW,315,3.0,8.0,69,0.00,,,-99.99,WeatherLink 5.4,2013-01-17 17:35:00,
2013-01-17 12:45:00,38.3,28.7,30.12,NW,315,2.0,7.0,68,0.00,,,-99.99,WeatherLink 5.4,2013-01-17 17:45:00,
2013-01-17 13:00:00,38.5,28.1,30.11,NW,315,2.0,6.0,66,0.00,,,-99.99,WeatherLink 5.4,2013-01-17 18:00:00,
2013-01-17 13:05:00,38.5,28.1,30.11,NW,315,2.0,6.0,66,0.00,,,-99.99,WeatherLink 5.4,2013-01-17 18:05:00,
2013-01-17 13:15:00,38.6,28.2,30.11,North,0,3.0,7.0,66,0.00,,,-99.99,WeatherLink 5.4,2013-01-17 18:15:00,
2013-01-17 13:30:00,38.8,28.4,30.10,NNW,337,2.0,8.0,66,0.00,,,-99.99,WeatherLink 5.4,2013-01-17 18:30:00,
2013-01-17 13:45:00,38.9,28.5,30.10,NNW,337,1.0,5.0,66,0.00,,,-99.99,WeatherLink 5.4,2013-01-17 18:45:00,
2013-01-17 14:00:00,38.9,27.4,30.09,North,0,2.0,7.0,63,0.00,,,-99.99,WeatherLink 5.4,2013-01-17 19:00:00,
2013-01-17 14:15:00,39.1,27.6,30.09,North,0,3.0,7.0,63,0.00,,,-99.99,WeatherLink 5.4,2013-01-17 19:15:00,
2013-01-17 14:30:00,38.9,27.0,30.08,NNE,22,2.0,7.0,62,0.00,,,-99.99,WeatherLink 5.4,2013-01-17 19:30:00,
2013-01-17 14:45:00,38.8,26.9,30.08,NNW,337,1.0,5.0,62,0.00,,,-99.99,WeatherLink 5.4,2013-01-17 19:45:00,
2013-01-17 15:00:00,38.5,26.6,30.09,NNW,337,1.0,5.0,62,0.00,,,-99.99,WeatherLink 5.4,2013-01-17 20:00:00,
2013-01-17 15:15:00,38.3,27.2,30.09,North,0,0.0,3.0,64,0.00,,,-99.99,WeatherLink 5.4,2013-01-17 20:15:00,
2013-01-17 15:30:00,38.3,27.2,30.09,North,0,0.0,2.0,64,0.00,,,-99.99,WeatherLink 5.4,2013-01-17 20:30:00,
2013-01-17 15:45:00,38.2,27.1,30.10,North,0,0.0,2.0,64,0.00,,,-99.99,WeatherLink 5.4,2013-01-17 20:45:00,
2013-01-17 16:00:00,38.2,27.8,30.10,North,-999,0.0,0.0,66,0.00,,,-99.99,WeatherLink 5.4,2013-01-17 21:00:00,
2013-01-17 16:05:00,38.2,27.8,30.10,North,-999,0.0,0.0,66,0.00,,,-99.99,WeatherLink 5.4,2013-01-17 21:05:00,
2013-01-17 16:15:00,38.0,28.0,30.11,North,-999,0.0,0.0,67,0.00,,,-99.99,WeatherLink 5.4,2013-01-17 21:15:00,
2013-01-17 16:20:00,38.0,28.0,30.11,North,-999,0.0,0.0,67,0.00,,,-99.99,WeatherLink 5.4,2013-01-17 21:20:00,
2013-01-17 16:30:00,37.9,28.3,30.11,North,-999,0.0,0.0,68,0.00,,,-99.99,WeatherLink 5.4,2013-01-17 21:30:00,
2013-01-17 16:35:00,37.9,28.3,30.11,North,-999,0.0,0.0,68,0.00,,,-99.99,WeatherLink 5.4,2013-01-17 21:35:00,
2013-01-17 16:45:00,37.8,28.5,30.13,North,-999,0.0,0.0,69,0.00,,,-99.99,WeatherLink 5.4,2013-01-17 21:45:00,
2013-01-17 17:00:00,37.5,28.6,30.12,North,-999,0.0,0.0,70,0.00,,,-99.99,WeatherLink 5.4,2013-01-17 22:00:00,
2013-01-17 17:05:00,37.5,28.6,30.12,North,-999,0.0,0.0,70,0.00,,,-99.99,WeatherLink 5.4,2013-01-17 22:05:00,
2013-01-17 17:15:00,37.2,28.3,30.12,North,-999,0.0,0.0,70,0.00,,,-99.99,WeatherLink 5.4,2013-01-17 22:15:00,
2013-01-17 17:30:00,36.9,28.4,30.12,North,-999,0.0,0.0,71,0.00,,,-99.99,WeatherLink 5.4,2013-01-17 22:30:00,
2013-01-17 17:45:00,36.6,29.1,30.13,North,0,0.0,1.0,74,0.00,,,-99.99,WeatherLink 5.4,2013-01-17 22:45:00,
2013-01-17 17:50:00,36.6,29.1,30.13,North,0,0.0,1.0,74,0.00,,,-99.99,WeatherLink 5.4,2013-01-17 22:50:00,
2013-01-17 18:00:00,36.3,28.8,30.14,North,-999,0.0,0.0,74,0.00,,,-99.99,WeatherLink 5.4,2013-01-17 23:00:00,
2013-01-17 18:05:00,36.3,28.8,30.14,North,-999,0.0,0.0,74,0.00,,,-99.99,WeatherLink 5.4,2013-01-17 23:05:00,
2013-01-17 18:15:00,36.0,28.5,30.13,North,-999,0.0,0.0,74,0.00,,,-99.99,WeatherLink 5.4,2013-01-17 23:15:00,
2013-01-17 18:20:00,36.0,28.5,30.13,North,-999,0.0,0.0,74,0.00,,,-99.99,WeatherLink 5.4,2013-01-17 23:20:00,
2013-01-17 18:30:00,35.9,29.1,30.12,North,-999,0.0,0.0,76,0.00,,,-99.99,WeatherLink 5.4,2013-01-17 23:30:00,
2013-01-17 18:35:00,35.9,29.1,30.12,North,-999,0.0,0.0,76,0.00,,,-99.99,WeatherLink 5.4,2013-01-17 23:35:00,
2013-01-17 18:45:00,35.6,29.1,30.13,ENE,67,0.0,3.0,77,0.00,,,-99.99,WeatherLink 5.4,2013-01-17 23:45:00,
2013-01-17 19:00:00,35.3,29.1,30.12,North,-999,0.0,0.0,78,0.00,,,-99.99,WeatherLink 5.4,2013-01-18 00:00:00,
2013-01-17 19:15:00,35.2,29.0,30.14,North,-999,0.0,0.0,78,0.00,,,-99.99,WeatherLink 5.4,2013-01-18 00:15:00,
2013-01-17 19:30:00,35.0,28.8,30.13,North,-999,0.0,0.0,78,0.00,,,-99.99,WeatherLink 5.4,2013-01-18 00:30:00,
2013-01-17 19:45:00,34.9,28.7,30.12,North,-999,0.0,0.0,78,0.00,,,-99.99,WeatherLink 5.4,2013-01-18 00:45:00,
2013-01-17 20:00:00,34.9,29.0,30.11,North,-999,0.0,0.0,79,0.00,,,-99.99,WeatherLink 5.4,2013-01-18 01:00:00,
2013-01-17 20:15:00,34.6,29.1,30.11,North,-999,0.0,0.0,80,0.00,,,-99.99,WeatherLink 5.4,2013-01-18 01:15:00,
2013-01-17 20:30:00,34.4,29.2,30.12,North,-999,0.0,0.0,81,0.00,,,-99.99,WeatherLink 5.4,2013-01-18 01:30:00,
2013-01-17 20:45:00,34.1,29.2,30.12,North,-999,0.0,0.0,82,0.00,,,-99.99,WeatherLink 5.4,2013-01-18 01:45:00,
2013-01-17 21:00:00,34.0,29.1,30.11,North,-999,0.0,0.0,82,0.00,,,-99.99,WeatherLink 5.4,2013-01-18 02:00:00,
2013-01-17 21:15:00,33.8,28.9,30.12,North,-999,0.0,0.0,82,0.00,,,-99.99,WeatherLink 5.4,2013-01-18 02:15:00,
2013-01-17 21:30:00,33.8,28.9,30.12,North,-999,0.0,0.0,82,0.00,,,-99.99,WeatherLink 5.4,2013-01-18 02:30:00,
2013-01-17 21:45:00,33.8,29.2,30.11,North,-999,0.0,0.0,83,0.00,,,-99.99,WeatherLink 5.4,2013-01-18 02:45:00,
2013-01-17 21:50:00,33.8,29.2,30.11,North,-999,0.0,0.0,83,0.00,,,-99.99,WeatherLink 5.4,2013-01-18 02:50:00,
2013-01-17 22:00:00,33.7,28.8,30.11,ENE,67,0.0,1.0,82,0.00,,,-99.99,WeatherLink 5.4,2013-01-18 03:00:00,
2013-01-17 22:15:00,33.7,28.5,30.09,ENE,67,0.0,1.0,81,0.00,,,-99.99,WeatherLink 5.4,2013-01-18 03:15:00,
2013-01-17 22:30:00,33.7,27.9,30.10,North,0,0.0,3.0,79,0.00,,,-99.99,WeatherLink 5.4,2013-01-18 03:30:00,
2013-01-17 22:35:00,33.7,27.9,30.10,North,0,0.0,3.0,79,0.00,,,-99.99,WeatherLink 5.4,2013-01-18 03:35:00,
2013-01-17 22:45:00,33.8,27.7,30.11,NW,315,0.0,3.0,78,0.00,,,-99.99,WeatherLink 5.4,2013-01-18 03:45:00,
2013-01-17 22:50:00,33.8,27.7,30.11,NW,315,0.0,3.0,78,0.00,,,-99.99,WeatherLink 5.4,2013-01-18 03:50:00,
2013-01-17 23:00:00,34.3,26.9,30.11,West,270,2.0,6.0,74,0.00,,,-99.99,WeatherLink 5.4,2013-01-18 04:00:00,
2013-01-17 23:15:00,34.6,26.5,30.10,WNW,292,1.0,4.0,72,0.00,,,-99.99,WeatherLink 5.4,2013-01-18 04:15:00,
2013-01-17 23:20:00,34.6,26.5,30.10,WNW,292,1.0,4.0,72,0.00,,,-99.99,WeatherLink 5.4,2013-01-18 04:20:00,
2013-01-17 23:30:00,34.6,25.8,30.08,NW,315,2.0,10.0,70,0.00,,,-99.99,WeatherLink 5.4,2013-01-18 04:30:00,
2013-01-17 23:45:00,35.0,25.1,30.11,NNW,337,2.0,7.0,67,0.00,,,-99.99,WeatherLink 5.4,2013-01-18 04:45:00,